Flight Briefing for CPX361

Departure Arrival
Seattle-Tacoma International Airport (KSEA)
Click to view FAA NOTAMS
Miami International Airport (KMIA)
Click to view FAA NOTAMS
Departure Time Arrival Time
N/A N/A
Aircraft Distance
B767-300BDSF 2411nm
Departure METAR Arrival METAR
KSEA 181453Z 02012KT 10SM CLR 09/01 A3020 RMK AO2 SLP233 T00890011 58002 KMIA 181453Z 36005KT 10SM FEW010 SCT130 BKN240 23/19 A3006 RMK AO2 SLP178 T02330194 53013
Suggested Route
SEA NORMY J90 MWH DLN DDY BFF SGF MEM MGM SZW PLYER JUULI SSCOT5


View recent IFR Routes data
Notes



Charts and Procedures

Charts for KSEA
No chart available
Charts for KMIA
No chart available

Windy.com Weather Map